createdAt,value
2018-08-18T00:00:48.036Z,1015.38
2018-08-18T00:01:48.057Z,1015.36
2018-08-18T00:02:48.091Z,1015.40
2018-08-18T00:03:48.102Z,1015.39
2018-08-18T00:04:48.124Z,1015.37
2018-08-18T00:05:48.148Z,1015.38
2018-08-18T00:06:48.170Z,1015.40
2018-08-18T00:07:48.197Z,1015.37
2018-08-18T00:08:48.215Z,1015.39
2018-08-18T00:09:48.234Z,1015.42
2018-08-18T00:10:48.257Z,1015.41
2018-08-18T00:11:48.329Z,1015.41
2018-08-18T00:12:48.305Z,1015.40
2018-08-18T00:13:48.324Z,1015.35
2018-08-18T00:14:48.348Z,1015.37
2018-08-18T00:15:48.368Z,1015.39
2018-08-18T00:16:48.391Z,1015.41
2018-08-18T00:17:48.413Z,1015.37
2018-08-18T00:18:48.434Z,1015.40
2018-08-18T00:19:48.460Z,1015.36
2018-08-18T00:20:48.482Z,1015.40
2018-08-18T00:21:48.500Z,1015.38
2018-08-18T00:22:48.523Z,1015.41
2018-08-18T00:23:48.548Z,1015.43
2018-08-18T00:24:48.567Z,1015.43
2018-08-18T00:25:48.592Z,1015.42
2018-08-18T00:26:48.611Z,1015.39
2018-08-18T00:27:48.637Z,1015.36
2018-08-18T00:28:48.657Z,1015.41
2018-08-18T00:29:48.681Z,1015.38
2018-08-18T00:30:48.703Z,1015.36
2018-08-18T00:31:48.726Z,1015.37
2018-08-18T00:32:48.745Z,1015.37
2018-08-18T00:33:48.768Z,1015.38
2018-08-18T00:34:48.790Z,1015.37
2018-08-18T00:35:48.813Z,1015.35
2018-08-18T00:36:48.834Z,1015.36
2018-08-18T00:37:48.855Z,1015.36
2018-08-18T00:38:49.127Z,1015.34
2018-08-18T00:39:48.904Z,1015.35
2018-08-18T00:40:48.924Z,1015.36
2018-08-18T00:41:48.942Z,1015.32
2018-08-18T00:42:48.964Z,1015.34
2018-08-18T00:43:48.989Z,1015.35
2018-08-18T00:44:49.010Z,1015.37
2018-08-18T00:45:49.032Z,1015.35
2018-08-18T00:46:49.052Z,1015.34
2018-08-18T00:47:49.075Z,1015.35
2018-08-18T00:48:49.097Z,1015.37
2018-08-18T00:49:49.118Z,1015.38
2018-08-18T00:50:49.140Z,1015.37
2018-08-18T00:51:49.165Z,1015.36
2018-08-18T00:52:49.185Z,1015.36
2018-08-18T00:53:49.213Z,1015.37
2018-08-18T00:54:49.232Z,1015.35
2018-08-18T00:55:49.253Z,1015.37
2018-08-18T00:56:49.274Z,1015.37
2018-08-18T00:57:49.293Z,1015.35
2018-08-18T00:58:49.316Z,1015.38
2018-08-18T00:59:49.339Z,1015.35
2018-08-18T01:00:49.362Z,1015.42
2018-08-18T01:01:49.385Z,1015.41
2018-08-18T01:02:49.412Z,1015.40
2018-08-18T01:03:49.429Z,1015.38
2018-08-18T01:04:49.447Z,1015.44
2018-08-18T01:05:49.472Z,1015.42
2018-08-18T01:06:49.493Z,1015.48
2018-08-18T01:07:49.513Z,1015.47
2018-08-18T01:08:49.538Z,1015.44
2018-08-18T01:09:49.557Z,1015.47
2018-08-18T01:10:49.655Z,1015.46
2018-08-18T01:11:49.811Z,1015.43
2018-08-18T01:12:49.657Z,1015.44
2018-08-18T01:13:49.774Z,1015.45
2018-08-18T01:14:49.698Z,1015.45
2018-08-18T01:15:49.721Z,1015.41
2018-08-18T01:16:49.713Z,1015.46
2018-08-18T01:17:49.731Z,1015.42
2018-08-18T01:18:49.756Z,1015.46
2018-08-18T01:19:49.778Z,1015.44
2018-08-18T01:20:49.798Z,1015.47
2018-08-18T01:21:49.821Z,1015.48
2018-08-18T01:22:49.842Z,1015.45
2018-08-18T01:23:49.866Z,1015.49
2018-08-18T01:24:49.888Z,1015.50
2018-08-18T01:25:49.908Z,1015.47
2018-08-18T01:26:49.931Z,1015.48
2018-08-18T01:27:49.954Z,1015.52
2018-08-18T01:28:49.976Z,1015.52
2018-08-18T01:29:49.993Z,1015.52
2018-08-18T01:30:50.021Z,1015.51
2018-08-18T01:31:50.036Z,1015.53
2018-08-18T01:32:50.060Z,1015.55
2018-08-18T01:33:50.078Z,1015.53
2018-08-18T01:34:50.105Z,1015.51
2018-08-18T01:35:50.124Z,1015.52
2018-08-18T01:36:50.149Z,1015.55
2018-08-18T01:37:50.167Z,1015.51
2018-08-18T01:38:50.639Z,1015.53
2018-08-18T01:39:50.211Z,1015.52
2018-08-18T01:40:50.231Z,1015.51
2018-08-18T01:41:50.252Z,1015.49
2018-08-18T01:42:50.276Z,1015.51
2018-08-18T01:43:50.389Z,1015.54
2018-08-18T01:44:50.317Z,1015.49
2018-08-18T01:45:50.342Z,1015.52
2018-08-18T01:46:50.362Z,1015.53
2018-08-18T01:47:50.381Z,1015.52
2018-08-18T01:48:50.402Z,1015.55
2018-08-18T01:49:50.427Z,1015.54
2018-08-18T01:50:50.448Z,1015.57
2018-08-18T01:51:50.467Z,1015.57
2018-08-18T01:52:50.492Z,1015.56
2018-08-18T01:53:50.513Z,1015.56
2018-08-18T01:54:50.532Z,1015.58
2018-08-18T01:55:50.659Z,1015.55
2018-08-18T01:56:50.578Z,1015.58
2018-08-18T01:57:50.595Z,1015.61
2018-08-18T01:58:50.620Z,1015.56
2018-08-18T01:59:50.639Z,1015.57
2018-08-18T02:00:50.661Z,1015.54
2018-08-18T02:01:50.681Z,1015.58
2018-08-18T02:02:50.703Z,1015.55
2018-08-18T02:03:50.729Z,1015.56
2018-08-18T02:04:50.750Z,1015.57
2018-08-18T02:05:50.768Z,1015.57
2018-08-18T02:06:50.790Z,1015.59
2018-08-18T02:07:50.814Z,1015.52
2018-08-18T02:08:50.831Z,1015.53
2018-08-18T02:09:50.854Z,1015.51
2018-08-18T02:10:50.878Z,1015.51
2018-08-18T02:11:50.898Z,1015.52
2018-08-18T02:12:50.919Z,1015.50
2018-08-18T02:13:50.939Z,1015.54
2018-08-18T02:14:50.963Z,1015.53
2018-08-18T02:15:50.983Z,1015.58
2018-08-18T02:16:51.008Z,1015.51
2018-08-18T02:17:51.029Z,1015.57
2018-08-18T02:18:51.050Z,1015.52
2018-08-18T02:19:51.099Z,1015.56
2018-08-18T02:20:51.093Z,1015.53
2018-08-18T02:21:51.110Z,1015.48
2018-08-18T02:22:51.136Z,1015.50
2018-08-18T02:23:51.157Z,1015.49
2018-08-18T02:24:51.178Z,1015.52
2018-08-18T02:25:51.197Z,1015.56
2018-08-18T02:26:51.220Z,1015.51
2018-08-18T02:27:51.241Z,1015.56
2018-08-18T02:28:51.265Z,1015.51
2018-08-18T02:29:51.283Z,1015.50
2018-08-18T02:30:51.304Z,1015.49
2018-08-18T02:31:51.328Z,1015.47
2018-08-18T02:32:51.348Z,1015.49
2018-08-18T02:33:51.370Z,1015.51
2018-08-18T02:34:51.392Z,1015.44
2018-08-18T02:35:51.411Z,1015.44
2018-08-18T02:36:51.433Z,1015.43
2018-08-18T02:37:51.453Z,1015.47
2018-08-18T02:38:51.477Z,1015.45
2018-08-18T02:39:51.500Z,1015.48
2018-08-18T02:40:51.522Z,1015.51
2018-08-18T02:41:51.542Z,1015.48
2018-08-18T02:42:51.567Z,1015.49
2018-08-18T02:43:51.584Z,1015.48
2018-08-18T02:44:51.605Z,1015.45
2018-08-18T02:45:51.624Z,1015.46
2018-08-18T02:46:51.648Z,1015.46
2018-08-18T02:47:51.668Z,1015.42
2018-08-18T02:48:51.690Z,1015.48
2018-08-18T02:49:51.713Z,1015.47
2018-08-18T02:50:51.734Z,1015.47
2018-08-18T02:51:51.757Z,1015.50
2018-08-18T02:52:51.779Z,1015.48
2018-08-18T02:53:51.798Z,1015.46
2018-08-18T02:54:51.817Z,1015.41
2018-08-18T02:55:52.741Z,1015.39
2018-08-18T02:56:51.862Z,1015.42
2018-08-18T02:57:51.881Z,1015.41
2018-08-18T02:58:51.908Z,1015.43
2018-08-18T02:59:51.928Z,1015.40
2018-08-18T03:00:51.949Z,1015.41
2018-08-18T03:01:51.969Z,1015.42
2018-08-18T03:02:51.988Z,1015.44
2018-08-18T03:03:52.010Z,1015.47
2018-08-18T03:04:52.031Z,1015.45
2018-08-18T03:05:52.056Z,1015.52
2018-08-18T03:06:52.076Z,1015.52
2018-08-18T03:07:52.137Z,1015.55
2018-08-18T03:08:52.121Z,1015.61
2018-08-18T03:09:52.139Z,1015.73
2018-08-18T03:10:52.162Z,1015.70
2018-08-18T03:11:52.185Z,1015.67
2018-08-18T03:12:52.203Z,1015.69
2018-08-18T03:13:52.223Z,1015.67
2018-08-18T03:14:52.246Z,1015.71
2018-08-18T03:15:52.269Z,1015.66
2018-08-18T03:16:52.290Z,1015.71
2018-08-18T03:17:52.310Z,1015.71
2018-08-18T03:18:52.328Z,1015.77
2018-08-18T03:19:52.349Z,1015.77
2018-08-18T03:20:52.371Z,1015.79
2018-08-18T03:21:52.394Z,1015.79
2018-08-18T03:22:52.415Z,1015.78
2018-08-18T03:23:52.434Z,1015.72
2018-08-18T03:24:52.458Z,1015.77
2018-08-18T03:25:52.478Z,1015.70
2018-08-18T03:26:52.507Z,1015.71
2018-08-18T03:27:52.520Z,1015.69
2018-08-18T03:28:52.559Z,1015.71
2018-08-18T03:29:52.565Z,1015.73
2018-08-18T03:30:52.584Z,1015.73
2018-08-18T03:31:52.604Z,1015.71
2018-08-18T03:32:52.622Z,1015.72
2018-08-18T03:33:52.645Z,1015.76
2018-08-18T03:34:52.666Z,1015.71
2018-08-18T03:35:52.685Z,1015.75
2018-08-18T03:36:52.708Z,1015.76
2018-08-18T03:37:52.726Z,1015.74
2018-08-18T03:38:52.750Z,1015.72
2018-08-18T03:39:52.772Z,1015.73
2018-08-18T03:40:52.789Z,1015.72
2018-08-18T03:41:52.812Z,1015.71
2018-08-18T03:42:52.830Z,1015.68
2018-08-18T03:43:52.856Z,1015.75
2018-08-18T03:44:52.874Z,1015.72
2018-08-18T03:45:52.895Z,1015.72
2018-08-18T03:46:52.914Z,1015.70
2018-08-18T03:47:52.938Z,1015.69
2018-08-18T03:48:52.959Z,1015.67
2018-08-18T03:49:52.979Z,1015.64
2018-08-18T03:50:53.000Z,1015.66
2018-08-18T03:51:53.023Z,1015.69
2018-08-18T03:52:53.042Z,1015.70
2018-08-18T03:53:53.060Z,1015.71
2018-08-18T03:54:53.083Z,1015.66
2018-08-18T03:55:53.106Z,1015.73
2018-08-18T03:56:53.124Z,1015.68
2018-08-18T03:57:53.146Z,1015.71
2018-08-18T03:58:53.164Z,1015.79
2018-08-18T03:59:53.189Z,1015.81
2018-08-18T04:00:53.206Z,1015.84
2018-08-18T04:01:53.247Z,1015.81
2018-08-18T04:02:53.249Z,1015.82
2018-08-18T04:03:53.270Z,1015.83
2018-08-18T04:04:53.292Z,1015.83
2018-08-18T04:05:53.310Z,1015.84
2018-08-18T04:06:53.330Z,1015.85
2018-08-18T04:07:53.354Z,1015.84
2018-08-18T04:08:53.375Z,1015.84
2018-08-18T04:09:53.395Z,1015.87
2018-08-18T04:10:53.414Z,1015.88
2018-08-18T04:11:53.436Z,1015.89
2018-08-18T04:12:53.457Z,1015.96
2018-08-18T04:13:53.478Z,1015.93
2018-08-18T04:14:53.497Z,1015.91
2018-08-18T04:15:53.520Z,1015.92
2018-08-18T04:16:53.539Z,1015.90
2018-08-18T04:17:53.560Z,1015.90
2018-08-18T04:18:53.632Z,1015.90
2018-08-18T04:19:53.601Z,1015.91
2018-08-18T04:20:53.625Z,1015.89
2018-08-18T04:21:53.644Z,1015.87
2018-08-18T04:22:53.663Z,1015.83
2018-08-18T04:23:53.687Z,1015.88
2018-08-18T04:24:53.707Z,1015.89
2018-08-18T04:25:53.729Z,1015.88
2018-08-18T04:26:53.750Z,1015.91
2018-08-18T04:27:53.769Z,1015.97
2018-08-18T04:28:53.792Z,1015.97
2018-08-18T04:29:53.809Z,1016.03
2018-08-18T04:30:53.830Z,1016.01
2018-08-18T04:31:53.851Z,1016.02
2018-08-18T04:32:53.878Z,1016.01
2018-08-18T04:33:53.896Z,1016.03
2018-08-18T04:34:53.917Z,1016.05
2018-08-18T04:35:53.935Z,1016.00
2018-08-18T04:36:53.959Z,1016.06
2018-08-18T04:37:53.976Z,1016.01
2018-08-18T04:38:53.998Z,1016.04
2018-08-18T04:39:54.022Z,1016.05
2018-08-18T04:40:54.044Z,1016.04
2018-08-18T04:41:54.062Z,1016.10
2018-08-18T04:42:54.082Z,1016.10
2018-08-18T04:43:54.152Z,1016.13
2018-08-18T04:44:54.123Z,1016.07
2018-08-18T04:45:54.144Z,1016.08
2018-08-18T04:46:54.164Z,1016.11
2018-08-18T04:47:54.187Z,1016.07
2018-08-18T04:48:54.207Z,1016.08
2018-08-18T04:49:54.230Z,1016.10
2018-08-18T04:50:54.248Z,1016.08
2018-08-18T04:51:54.273Z,1016.07
2018-08-18T04:52:54.294Z,1016.11
2018-08-18T04:53:54.314Z,1016.08
2018-08-18T04:54:54.333Z,1016.07
2018-08-18T04:55:54.356Z,1016.08
2018-08-18T04:56:54.384Z,1016.04
2018-08-18T04:57:54.394Z,1016.06
2018-08-18T04:58:54.416Z,1016.06
2018-08-18T04:59:54.442Z,1016.04
2018-08-18T05:00:54.475Z,1016.07
2018-08-18T05:01:54.478Z,1016.07
2018-08-18T05:02:54.506Z,1016.08
2018-08-18T05:03:54.523Z,1016.06
2018-08-18T05:04:54.541Z,1016.10
2018-08-18T05:05:54.564Z,1016.08
2018-08-18T05:06:54.584Z,1016.05
2018-08-18T05:07:54.608Z,1016.10
2018-08-18T05:08:54.683Z,1016.11
2018-08-18T05:09:54.648Z,1016.14
2018-08-18T05:10:54.671Z,1016.14
2018-08-18T05:11:54.688Z,1016.15
2018-08-18T05:12:54.710Z,1016.13
2018-08-18T05:13:54.728Z,1016.19
2018-08-18T05:14:54.749Z,1016.14
2018-08-18T05:15:54.775Z,1016.14
2018-08-18T05:16:54.795Z,1016.14
2018-08-18T05:17:54.815Z,1016.14
2018-08-18T05:18:54.868Z,1016.17
2018-08-18T05:19:54.854Z,1016.16
2018-08-18T05:20:54.876Z,1016.17
2018-08-18T05:21:54.896Z,1016.15
2018-08-18T05:22:54.920Z,1016.19
2018-08-18T05:23:54.940Z,1016.13
2018-08-18T05:24:54.963Z,1016.12
2018-08-18T05:25:54.980Z,1016.10
2018-08-18T05:26:55.002Z,1016.14
2018-08-18T05:27:55.024Z,1016.11
2018-08-18T05:28:55.047Z,1016.14
2018-08-18T05:29:55.063Z,1016.13
2018-08-18T05:30:55.085Z,1016.12
2018-08-18T05:31:55.110Z,1016.16
2018-08-18T05:32:55.129Z,1016.17
2018-08-18T05:33:55.151Z,1016.15
2018-08-18T05:34:55.172Z,1016.14
2018-08-18T05:35:55.194Z,1016.16
2018-08-18T05:36:55.213Z,1016.17
2018-08-18T05:37:55.233Z,1016.13
2018-08-18T05:38:55.258Z,1016.13
2018-08-18T05:39:55.279Z,1016.12
2018-08-18T05:40:55.301Z,1016.14
2018-08-18T05:41:55.321Z,1016.15
2018-08-18T05:42:55.376Z,1016.19
2018-08-18T05:43:55.362Z,1016.18
2018-08-18T05:44:55.386Z,1016.22
2018-08-18T05:45:55.408Z,1016.19
2018-08-18T05:46:55.430Z,1016.21
2018-08-18T05:47:55.452Z,1016.21
2018-08-18T05:48:55.472Z,1016.24
2018-08-18T05:49:55.495Z,1016.22
2018-08-18T05:50:55.517Z,1016.22
2018-08-18T05:51:55.541Z,1016.25
2018-08-18T05:52:55.557Z,1016.23
2018-08-18T05:53:55.581Z,1016.23
2018-08-18T05:54:55.646Z,1016.22
2018-08-18T05:55:55.625Z,1016.21
2018-08-18T05:56:55.647Z,1016.19
2018-08-18T05:57:55.668Z,1016.23
2018-08-18T05:58:55.689Z,1016.21
2018-08-18T05:59:55.710Z,1016.24
2018-08-18T06:00:55.732Z,1016.20
2018-08-18T06:01:55.752Z,1016.24
2018-08-18T06:02:55.775Z,1016.21
2018-08-18T06:03:55.795Z,1016.23
2018-08-18T06:04:55.817Z,1016.25
2018-08-18T06:05:55.838Z,1016.26
2018-08-18T06:06:55.859Z,1016.30
2018-08-18T06:07:55.881Z,1016.29
2018-08-18T06:08:55.906Z,1016.30
2018-08-18T06:09:55.925Z,1016.29
2018-08-18T06:10:55.945Z,1016.30
2018-08-18T06:11:55.994Z,1016.33
2018-08-18T06:12:55.992Z,1016.33
2018-08-18T06:13:56.012Z,1016.29
2018-08-18T06:14:56.035Z,1016.37
2018-08-18T06:15:56.053Z,1016.39
2018-08-18T06:16:56.078Z,1016.39
2018-08-18T06:17:56.098Z,1016.43
2018-08-18T06:18:56.117Z,1016.44
2018-08-18T06:19:56.143Z,1016.41
2018-08-18T06:20:56.163Z,1016.45
2018-08-18T06:21:56.182Z,1016.48
2018-08-18T06:22:56.203Z,1016.51
2018-08-18T06:23:56.226Z,1016.49
2018-08-18T06:24:56.251Z,1016.46
2018-08-18T06:25:56.269Z,1016.48
2018-08-18T06:26:56.291Z,1016.51
2018-08-18T06:27:56.313Z,1016.54
2018-08-18T06:28:56.335Z,1016.51
2018-08-18T06:29:56.357Z,1016.53
2018-08-18T06:30:56.379Z,1016.57
2018-08-18T06:31:56.400Z,1016.56
2018-08-18T06:32:56.423Z,1016.53
2018-08-18T06:33:56.447Z,1016.59
2018-08-18T06:34:56.603Z,1016.61
2018-08-18T06:35:56.497Z,1016.64
2018-08-18T06:36:56.511Z,1016.68
2018-08-18T06:37:56.535Z,1016.67
2018-08-18T06:38:56.554Z,1016.64
2018-08-18T06:39:56.577Z,1016.64
2018-08-18T06:40:56.637Z,1016.67
2018-08-18T06:41:56.747Z,1016.65
2018-08-18T06:42:56.645Z,1016.67
2018-08-18T06:43:56.668Z,1016.64
2018-08-18T06:44:56.687Z,1016.69
2018-08-18T06:45:56.711Z,1016.64
2018-08-18T06:46:56.734Z,1016.63
2018-08-18T06:47:56.756Z,1016.62
2018-08-18T06:48:56.783Z,1016.60
2018-08-18T06:49:56.799Z,1016.62
2018-08-18T06:50:56.823Z,1016.64
2018-08-18T06:51:56.845Z,1016.67
2018-08-18T06:52:56.868Z,1016.65
2018-08-18T06:53:56.889Z,1016.69
2018-08-18T06:54:57.083Z,1016.69
2018-08-18T06:55:56.937Z,1016.72
2018-08-18T06:56:56.962Z,1016.73
2018-08-18T06:57:56.979Z,1016.72
2018-08-18T06:58:56.999Z,1016.74
2018-08-18T06:59:57.025Z,1016.72
2018-08-18T07:00:57.046Z,1016.72
2018-08-18T07:01:57.067Z,1016.70
2018-08-18T07:02:57.091Z,1016.74
2018-08-18T07:03:57.111Z,1016.68
2018-08-18T07:04:57.135Z,1016.69
2018-08-18T07:05:57.188Z,1016.71
2018-08-18T07:06:57.179Z,1016.73
2018-08-18T07:07:57.204Z,1016.76
2018-08-18T07:08:57.223Z,1016.74
2018-08-18T07:09:57.249Z,1016.73
2018-08-18T07:10:57.268Z,1016.71
2018-08-18T07:11:57.291Z,1016.72
2018-08-18T07:12:57.316Z,1016.70
2018-08-18T07:13:57.339Z,1016.72
2018-08-18T07:14:57.359Z,1016.72
2018-08-18T07:15:57.385Z,1016.72
2018-08-18T07:16:57.404Z,1016.74
2018-08-18T07:17:57.432Z,1016.67
2018-08-18T07:18:57.449Z,1016.74
2018-08-18T07:19:57.472Z,1016.70
2018-08-18T07:20:57.495Z,1016.68
2018-08-18T07:21:57.516Z,1016.66
2018-08-18T07:22:57.540Z,1016.69
2018-08-18T07:23:57.563Z,1016.72
2018-08-18T07:24:57.588Z,1016.72
2018-08-18T07:25:57.611Z,1016.73
2018-08-18T07:26:57.634Z,1016.72
2018-08-18T07:27:57.657Z,1016.77
2018-08-18T07:28:57.795Z,1016.76
2018-08-18T07:29:57.701Z,1016.73
2018-08-18T07:30:57.721Z,1016.75
2018-08-18T07:31:57.745Z,1016.80
2018-08-18T07:32:57.769Z,1016.82
2018-08-18T07:33:57.792Z,1016.83
2018-08-18T07:34:57.817Z,1016.84
2018-08-18T07:35:57.840Z,1016.84
2018-08-18T07:36:57.863Z,1016.85
2018-08-18T07:37:57.885Z,1016.84
2018-08-18T07:38:57.964Z,1016.89
2018-08-18T07:39:57.932Z,1016.90
2018-08-18T07:40:57.954Z,1016.91
2018-08-18T07:41:57.976Z,1016.90
2018-08-18T07:42:57.998Z,1016.95
2018-08-18T07:43:58.036Z,1016.94
2018-08-18T07:44:58.044Z,1016.96
2018-08-18T07:45:58.073Z,1016.95
2018-08-18T07:46:58.093Z,1016.95
2018-08-18T07:47:58.118Z,1016.98
2018-08-18T07:48:58.139Z,1016.99
2018-08-18T07:49:58.160Z,1016.95
2018-08-18T07:50:58.187Z,1016.99
2018-08-18T07:51:58.208Z,1016.99
2018-08-18T07:52:58.273Z,1017.00
2018-08-18T07:53:58.257Z,1017.01
2018-08-18T07:54:58.278Z,1016.97
2018-08-18T07:55:58.304Z,1017.01
2018-08-18T07:56:58.328Z,1017.00
2018-08-18T07:57:58.350Z,1016.99
2018-08-18T07:58:58.372Z,1017.01
2018-08-18T07:59:58.400Z,1017.02
2018-08-18T08:00:58.422Z,1017.05
2018-08-18T08:01:58.443Z,1017.03
2018-08-18T08:02:58.466Z,1017.04
2018-08-18T08:03:58.491Z,1016.99
2018-08-18T08:04:58.547Z,1017.01
2018-08-18T08:05:58.539Z,1017.01
2018-08-18T08:06:58.561Z,1016.94
2018-08-18T08:07:58.585Z,1016.96
2018-08-18T08:08:58.617Z,1016.92
2018-08-18T08:09:58.633Z,1016.92
2018-08-18T08:10:58.656Z,1016.92
2018-08-18T08:11:58.686Z,1016.93
2018-08-18T08:12:58.739Z,1016.85
2018-08-18T08:13:58.728Z,1016.90
2018-08-18T08:14:58.751Z,1016.92
2018-08-18T08:15:58.779Z,1016.91
2018-08-18T08:16:58.804Z,1016.94
2018-08-18T08:17:58.821Z,1016.95
2018-08-18T08:18:58.846Z,1016.98
2018-08-18T08:19:58.873Z,1016.93
2018-08-18T08:20:58.896Z,1016.97
2018-08-18T08:21:58.917Z,1017.07
2018-08-18T08:22:58.942Z,1017.03
2018-08-18T08:23:58.968Z,1017.05
2018-08-18T08:24:58.988Z,1017.09
2018-08-18T08:25:59.012Z,1017.05
2018-08-18T08:26:59.039Z,1017.03
2018-08-18T08:27:59.060Z,1017.04
2018-08-18T08:28:59.085Z,1017.01
2018-08-18T08:29:59.109Z,1017.03
2018-08-18T08:30:59.133Z,1017.02
2018-08-18T08:31:59.156Z,1017.03
2018-08-18T08:32:59.181Z,1017.01
2018-08-18T08:33:59.207Z,1017.04
2018-08-18T08:34:59.228Z,1016.98
2018-08-18T08:35:59.256Z,1016.98
2018-08-18T08:36:59.279Z,1017.01
2018-08-18T08:37:59.301Z,1017.01
2018-08-18T08:38:59.328Z,1017.03
2018-08-18T08:39:59.352Z,1017.02
2018-08-18T08:40:59.373Z,1017.01
2018-08-18T08:41:59.399Z,1016.97
2018-08-18T08:42:59.425Z,1017.04
2018-08-18T08:43:59.449Z,1017.01
2018-08-18T08:44:59.474Z,1017.02
2018-08-18T08:45:59.494Z,1017.03
2018-08-18T08:46:59.521Z,1016.99
2018-08-18T08:47:59.543Z,1017.03
2018-08-18T08:48:59.660Z,1016.97
2018-08-18T08:49:59.591Z,1017.02
2018-08-18T08:50:59.666Z,1017.00
2018-08-18T08:51:59.643Z,1016.98
2018-08-18T08:52:59.665Z,1016.97
2018-08-18T08:53:59.690Z,1016.96
2018-08-18T08:54:59.714Z,1016.98
2018-08-18T08:55:59.740Z,1017.04
2018-08-18T08:56:59.764Z,1017.02
2018-08-18T08:57:59.791Z,1017.04
2018-08-18T08:58:59.864Z,1017.01
2018-08-18T08:59:59.836Z,1017.01
2018-08-18T09:00:59.860Z,1017.03
2018-08-18T09:01:59.888Z,1017.00
2018-08-18T09:02:59.916Z,1016.96
2018-08-18T09:03:59.937Z,1016.94
2018-08-18T09:04:59.959Z,1016.98
2018-08-18T09:05:59.984Z,1016.99
2018-08-18T09:07:00.009Z,1016.99
2018-08-18T09:08:00.036Z,1016.99
2018-08-18T09:09:00.060Z,1017.03
2018-08-18T09:10:00.083Z,1016.99
2018-08-18T09:11:00.108Z,1016.98
2018-08-18T09:12:00.133Z,1017.00
2018-08-18T09:13:00.158Z,1017.00
2018-08-18T09:14:00.185Z,1017.01
2018-08-18T09:15:00.207Z,1017.03
2018-08-18T09:16:00.236Z,1017.04
2018-08-18T09:17:00.264Z,1017.00
2018-08-18T09:18:00.285Z,1016.99
2018-08-18T09:19:00.306Z,1016.96
2018-08-18T09:20:00.382Z,1017.02
2018-08-18T09:21:00.358Z,1017.03
2018-08-18T09:22:00.385Z,1016.98
2018-08-18T09:23:00.411Z,1016.99
2018-08-18T09:24:00.435Z,1017.02
2018-08-18T09:25:00.460Z,1016.98
2018-08-18T09:26:00.507Z,1017.02
2018-08-18T09:27:00.507Z,1017.00
2018-08-18T09:28:00.536Z,1017.02
2018-08-18T09:29:00.558Z,1016.97
2018-08-18T09:30:00.592Z,1017.04
2018-08-18T09:31:00.613Z,1017.03
2018-08-18T09:32:00.635Z,1017.06
2018-08-18T09:33:00.661Z,1017.01
2018-08-18T09:34:00.685Z,1016.96
2018-08-18T09:35:00.708Z,1016.98
2018-08-18T09:36:00.736Z,1016.97
2018-08-18T09:37:00.759Z,1016.98
2018-08-18T09:38:00.788Z,1016.98
2018-08-18T09:39:00.812Z,1016.98
2018-08-18T09:40:00.837Z,1017.00
2018-08-18T09:41:00.861Z,1016.98
2018-08-18T09:42:00.887Z,1017.00
2018-08-18T09:43:00.910Z,1016.99
2018-08-18T09:44:00.935Z,1016.96
2018-08-18T09:45:00.963Z,1017.02
2018-08-18T09:46:00.987Z,1017.01
2018-08-18T09:47:01.012Z,1016.98
2018-08-18T09:48:01.039Z,1016.99
2018-08-18T09:49:01.064Z,1016.98
2018-08-18T09:50:01.090Z,1017.04
2018-08-18T09:51:01.113Z,1016.98
2018-08-18T09:52:01.142Z,1017.02
2018-08-18T09:53:01.165Z,1016.98
2018-08-18T09:54:01.190Z,1016.99
2018-08-18T09:55:01.214Z,1016.96
2018-08-18T09:56:01.247Z,1016.96
2018-08-18T09:57:01.297Z,1016.96
2018-08-18T09:58:01.288Z,1017.04
2018-08-18T09:59:01.315Z,1016.96
2018-08-18T10:00:01.643Z,1016.97
2018-08-18T10:01:01.365Z,1016.98
2018-08-18T10:02:01.398Z,1016.96
2018-08-18T10:03:01.418Z,1017.00
2018-08-18T10:04:01.644Z,1017.03
2018-08-18T10:05:01.471Z,1016.97
2018-08-18T10:06:01.490Z,1017.02
2018-08-18T10:07:01.517Z,1017.01
2018-08-18T10:08:01.542Z,1016.91
2018-08-18T10:09:01.670Z,1016.95
2018-08-18T10:10:01.595Z,1016.90
2018-08-18T10:11:01.620Z,1016.91
2018-08-18T10:12:01.646Z,1016.94
2018-08-18T10:13:01.669Z,1016.92
2018-08-18T10:14:01.696Z,1016.94
2018-08-18T10:15:01.719Z,1016.90
2018-08-18T10:16:01.748Z,1016.87
2018-08-18T10:17:01.773Z,1016.85
2018-08-18T10:18:01.799Z,1016.87
2018-08-18T10:19:01.821Z,1016.88
2018-08-18T10:20:01.847Z,1016.93
2018-08-18T10:21:01.875Z,1016.88
2018-08-18T10:22:01.896Z,1016.92
2018-08-18T10:23:01.924Z,1016.90
2018-08-18T10:24:01.951Z,1016.84
2018-08-18T10:25:01.974Z,1016.89
2018-08-18T10:26:02.000Z,1016.91
2018-08-18T10:27:02.027Z,1016.89
2018-08-18T10:28:02.049Z,1016.80
2018-08-18T10:29:02.079Z,1016.87
2018-08-18T10:30:02.104Z,1016.86
2018-08-18T10:31:02.130Z,1016.89
2018-08-18T10:32:02.156Z,1016.86
2018-08-18T10:33:02.182Z,1016.89
2018-08-18T10:34:02.207Z,1016.76
2018-08-18T10:35:02.230Z,1016.73
2018-08-18T10:36:02.256Z,1016.76
2018-08-18T10:37:02.286Z,1016.81
2018-08-18T10:38:02.308Z,1016.82
2018-08-18T10:39:02.333Z,1016.72
2018-08-18T10:40:02.361Z,1016.78
2018-08-18T10:41:02.387Z,1016.70
2018-08-18T10:42:02.422Z,1016.69
2018-08-18T10:43:02.437Z,1016.72
2018-08-18T10:44:02.464Z,1016.70
2018-08-18T10:45:02.487Z,1016.69
2018-08-18T10:46:02.515Z,1016.63
2018-08-18T10:47:02.538Z,1016.70
2018-08-18T10:48:02.565Z,1016.65
2018-08-18T10:49:02.592Z,1016.67
2018-08-18T10:50:02.615Z,1016.66
2018-08-18T10:51:02.643Z,1016.67
2018-08-18T10:52:02.668Z,1016.65
2018-08-18T10:53:02.697Z,1016.67
2018-08-18T10:54:02.718Z,1016.65
2018-08-18T10:55:02.747Z,1016.60
2018-08-18T10:56:02.769Z,1016.59
2018-08-18T10:57:02.795Z,1016.56
2018-08-18T10:58:02.831Z,1016.58
2018-08-18T10:59:02.846Z,1016.61
2018-08-18T11:00:02.878Z,1016.60
2018-08-18T11:01:02.901Z,1016.62
2018-08-18T11:02:02.928Z,1016.68
2018-08-18T11:03:02.953Z,1016.64
2018-08-18T11:04:03.089Z,1016.66
2018-08-18T11:05:03.011Z,1016.67
2018-08-18T11:06:03.031Z,1016.64
2018-08-18T11:07:03.056Z,1016.71
2018-08-18T11:08:03.086Z,1016.66
2018-08-18T11:09:03.106Z,1016.60
2018-08-18T11:10:03.134Z,1016.68
2018-08-18T11:11:03.159Z,1016.63
2018-08-18T11:12:03.184Z,1016.63
2018-08-18T11:13:03.209Z,1016.63
2018-08-18T11:14:03.237Z,1016.60
2018-08-18T11:15:03.261Z,1016.62
2018-08-18T11:16:03.290Z,1016.66
2018-08-18T11:17:03.313Z,1016.69
2018-08-18T11:18:03.345Z,1016.73
2018-08-18T11:19:03.368Z,1016.67
2018-08-18T11:20:03.396Z,1016.69
2018-08-18T11:21:03.419Z,1016.65
2018-08-18T11:22:03.448Z,1016.66
2018-08-18T11:23:03.470Z,1016.68
2018-08-18T11:24:03.495Z,1016.67
2018-08-18T11:25:03.522Z,1016.67
2018-08-18T11:26:03.546Z,1016.66
2018-08-18T11:27:03.576Z,1016.72
2018-08-18T11:28:03.598Z,1016.65
2018-08-18T11:29:03.626Z,1016.61
2018-08-18T11:30:03.653Z,1016.59
2018-08-18T11:31:03.676Z,1016.65
2018-08-18T11:32:03.705Z,1016.62
2018-08-18T11:33:03.728Z,1016.67
2018-08-18T11:34:03.754Z,1016.66
2018-08-18T11:35:03.807Z,1016.70
2018-08-18T11:36:03.814Z,1016.67
2018-08-18T11:37:03.835Z,1016.69
2018-08-18T11:38:03.860Z,1016.69
2018-08-18T11:39:03.884Z,1016.63
2018-08-18T11:40:03.913Z,1016.60
2018-08-18T11:41:03.938Z,1016.58
2018-08-18T11:42:03.964Z,1016.58
2018-08-18T11:43:03.991Z,1016.61
2018-08-18T11:44:04.017Z,1016.60
2018-08-18T11:45:04.043Z,1016.52
2018-08-18T11:46:04.070Z,1016.54
2018-08-18T11:47:04.110Z,1016.52
2018-08-18T11:48:04.119Z,1016.55
2018-08-18T11:49:04.152Z,1016.51
2018-08-18T11:50:04.174Z,1016.47
2018-08-18T11:51:04.200Z,1016.49
2018-08-18T11:52:04.225Z,1016.53
2018-08-18T11:53:04.249Z,1016.55
2018-08-18T11:54:04.276Z,1016.57
2018-08-18T11:55:04.301Z,1016.57
2018-08-18T11:56:04.327Z,1016.48
2018-08-18T11:57:04.356Z,1016.45
2018-08-18T11:58:04.381Z,1016.51
2018-08-18T11:59:04.408Z,1016.54
2018-08-18T12:00:04.434Z,1016.52
2018-08-18T12:01:04.467Z,1016.56
2018-08-18T12:02:04.500Z,1016.56
2018-08-18T12:03:04.509Z,1016.54
2018-08-18T12:04:04.539Z,1016.50
2018-08-18T12:05:04.566Z,1016.47
2018-08-18T12:06:04.591Z,1016.51